Time;durP1;ratioP1;P1;durP2;ratioP2;P2;SDS_P1;SDS_P2;PMS_P1;PMS_P2;Temp;Humidity;BMP_temperature;BMP_pressure;BME280_temperature;BME280_humidity;BME280_pressure;Samples;Min_cycle;Max_cycle;Signal;HPM_P1;HPM_P2
2023/12/30 00:02:43;;;;;;;157.35;149.13;;;11.30;85.70;;;;;;12659009;28;20344;-72
2023/12/30 00:08:47;;;;;;;159.13;150.75;;;11.20;85.70;;;;;;12658783;28;20028;-72
2023/12/30 00:14:51;;;;;;;202.30;191.73;;;11.00;86.00;;;;;;12657369;28;20338;-73
2023/12/30 00:20:53;;;;;;;141.52;133.77;;;11.00;86.20;;;;;;12657000;28;20326;-72
2023/12/30 00:26:54;;;;;;;135.70;127.53;;;11.00;86.00;;;;;;12657234;28;20028;-72
2023/12/30 00:32:56;;;;;;;133.68;126.32;;;10.90;86.00;;;;;;12657868;28;20035;-72
2023/12/30 00:38:57;;;;;;;113.85;107.03;;;10.90;86.20;;;;;;12656438;28;20043;-72
2023/12/30 00:44:59;;;;;;;145.48;137.77;;;11.10;86.10;;;;;;12655833;28;20042;-72
2023/12/30 00:51:01;;;;;;;151.82;143.48;;;11.10;85.80;;;;;;12657019;28;20356;-72
2023/12/30 00:57:03;;;;;;;178.20;168.88;;;11.00;86.00;;;;;;12654763;28;20040;-73
2023/12/30 01:03:05;;;;;;;149.07;140.35;;;11.20;86.10;;;;;;12638774;28;20441;-72
2023/12/30 01:09:07;;;;;;;151.90;143.23;;;11.30;86.40;;;;;;12656542;28;20024;-72
2023/12/30 01:15:09;;;;;;;167.07;157.80;;;11.40;86.30;;;;;;12656298;28;20031;-72
2023/12/30 01:21:11;;;;;;;148.82;140.88;;;11.40;86.00;;;;;;12654745;28;20083;-72
2023/12/30 01:27:13;;;;;;;167.55;159.05;;;11.20;85.90;;;;;;12654135;28;20063;-72
2023/12/30 01:33:15;;;;;;;150.63;142.60;;;11.00;86.20;;;;;;12653723;28;20433;-72
2023/12/30 01:39:17;;;;;;;140.40;132.63;;;11.00;86.40;;;;;;12653846;28;20341;-72
2023/12/30 01:45:18;;;;;;;141.85;134.00;;;11.10;86.20;;;;;;12636174;28;20035;-72
2023/12/30 01:51:20;;;;;;;146.32;136.63;;;11.20;86.10;;;;;;12636826;28;20036;-72
2023/12/30 01:57:22;;;;;;;84.93;79.07;;;11.20;86.00;;;;;;12654585;28;20047;-72
2023/12/30 02:03:24;;;;;;;138.05;130.20;;;11.20;85.80;;;;;;12635907;28;20047;-72
2023/12/30 02:09:25;;;;;;;137.20;130.10;;;11.20;85.90;;;;;;12654401;28;20032;-72
2023/12/30 02:15:27;;;;;;;116.88;110.28;;;11.20;85.70;;;;;;12653263;28;20048;-72
2023/12/30 02:21:29;;;;;;;122.10;115.07;;;10.80;85.70;;;;;;12636010;28;20028;-72
2023/12/30 02:27:30;;;;;;;148.82;140.35;;;10.80;86.20;;;;;;12653964;28;20028;-72
2023/12/30 02:33:32;;;;;;;144.25;136.35;;;11.10;86.40;;;;;;12651773;28;20035;-72
2023/12/30 02:39:33;;;;;;;137.70;129.60;;;11.00;86.30;;;;;;12652619;28;20039;-72
2023/12/30 02:45:35;;;;;;;138.48;131.13;;;11.10;86.60;;;;;;12686420;28;20032;-72
2023/12/30 02:51:37;;;;;;;89.68;83.60;;;10.90;86.40;;;;;;12652800;28;20044;-72
2023/12/30 02:57:39;;;;;;;87.30;81.90;;;10.80;86.70;;;;;;12661048;28;20032;-72
2023/12/30 03:03:40;;;;;;;108.90;102.20;;;10.90;86.60;;;;;;12660474;28;20536;-72
2023/12/30 03:09:42;;;;;;;107.07;99.80;;;10.90;86.50;;;;;;12644186;28;20028;-72
2023/12/30 03:15:43;;;;;;;114.15;107.63;;;10.90;86.60;;;;;;12661747;28;20036;-72
2023/12/30 03:21:45;;;;;;;126.75;119.32;;;11.00;86.40;;;;;;12661219;28;20035;-72
2023/12/30 03:27:48;;;;;;;130.43;122.53;;;11.00;86.50;;;;;;12660932;28;20028;-72
2023/12/30 03:33:51;;;;;;;151.15;142.77;;;11.10;86.50;;;;;;12643136;28;20032;-73
2023/12/30 03:39:52;;;;;;;117.13;110.03;;;11.10;86.40;;;;;;12676020;28;20043;-72
2023/12/30 03:45:54;;;;;;;138.07;130.48;;;10.90;86.50;;;;;;12642712;28;20058;-72
2023/12/30 03:51:56;;;;;;;43.08;38.17;;;10.90;86.70;;;;;;12660751;28;20329;-72
2023/12/30 03:57:57;;;;;;;56.85;52.50;;;10.70;86.60;;;;;;12658401;28;20039;-74
2023/12/30 04:03:59;;;;;;;41.70;37.45;;;10.70;86.60;;;;;;12659301;28;20036;-75
2023/12/30 04:10:00;;;;;;;46.53;42.53;;;10.70;86.60;;;;;;12658791;28;20051;-75
2023/12/30 04:16:02;;;;;;;39.15;35.63;;;10.60;86.60;;;;;;12659055;28;20028;-75
2023/12/30 04:22:04;;;;;;;49.80;45.05;;;10.40;86.70;;;;;;12657506;28;20028;-75
2023/12/30 04:28:06;;;;;;;72.50;67.18;;;10.50;86.90;;;;;;12657234;28;20039;-74
2023/12/30 04:34:07;;;;;;;91.07;84.72;;;10.50;87.00;;;;;;12657069;28;20028;-75
2023/12/30 04:40:09;;;;;;;76.32;71.43;;;10.60;87.00;;;;;;12656893;28;20043;-74
2023/12/30 04:46:12;;;;;;;90.72;84.07;;;10.70;86.80;;;;;;12656216;28;20028;-75
2023/12/30 04:52:14;;;;;;;94.13;88.18;;;10.70;86.90;;;;;;12655941;28;20058;-74
2023/12/30 04:58:16;;;;;;;84.72;79.15;;;10.80;86.70;;;;;;12656822;28;20032;-75
2023/12/30 05:04:17;;;;;;;86.68;80.35;;;10.80;86.80;;;;;;12655504;28;20341;-75
2023/12/30 05:10:19;;;;;;;80.38;75.10;;;10.80;86.70;;;;;;12637983;28;20040;-75
2023/12/30 05:16:22;;;;;;;96.90;90.97;;;10.70;86.70;;;;;;12655646;28;20073;-75
2023/12/30 05:22:23;;;;;;;95.75;89.97;;;10.70;86.70;;;;;;12656006;28;20044;-75
2023/12/30 05:28:25;;;;;;;95.57;89.43;;;10.60;86.70;;;;;;12655875;28;20332;-75
2023/12/30 05:34:26;;;;;;;50.22;45.85;;;10.60;86.80;;;;;;12655588;28;20039;-75
2023/12/30 05:40:28;;;;;;;45.78;41.17;;;10.50;86.80;;;;;;12654597;28;20028;-75
2023/12/30 05:46:30;;;;;;;46.78;42.65;;;10.50;86.80;;;;;;12655107;28;20032;-75
2023/12/30 05:52:32;;;;;;;55.15;50.08;;;10.40;86.90;;;;;;12636996;28;20047;-75
2023/12/30 05:58:34;;;;;;;44.85;40.28;;;10.50;86.90;;;;;;12636590;28;20475;-75
2023/12/30 06:04:40;;;;;;;56.63;51.85;;;10.60;86.70;;;;;;12654446;28;20344;-75
2023/12/30 06:10:41;;;;;;;86.30;80.15;;;10.60;86.50;;;;;;12652301;28;20048;-75
2023/12/30 06:16:43;;;;;;;74.65;68.93;;;10.60;86.50;;;;;;12654060;28;20028;-74
2023/12/30 06:22:45;;;;;;;43.58;38.05;;;10.70;86.40;;;;;;12653770;28;20032;-75
2023/12/30 06:28:46;;;;;;;49.50;44.50;;;10.70;86.30;;;;;;12659166;28;20028;-75
2023/12/30 06:34:48;;;;;;;82.30;76.65;;;10.50;86.40;;;;;;12664385;28;20038;-75
2023/12/30 06:40:50;;;;;;;80.60;74.47;;;10.50;86.70;;;;;;12663427;28;20040;-75
2023/12/30 06:46:52;;;;;;;77.45;72.10;;;10.60;86.60;;;;;;12662798;28;20478;-74
2023/12/30 06:53:00;;;;;;;57.67;52.47;;;10.40;86.50;;;;;;12662837;28;20032;-74
2023/12/30 06:59:02;;;;;;;61.13;55.60;;;10.40;86.60;;;;;;12667625;22;20040;-75
2023/12/30 07:05:04;;;;;;;64.25;59.53;;;10.30;86.40;;;;;;12643612;28;20040;-75
2023/12/30 07:11:06;;;;;;;49.38;44.63;;;10.20;86.20;;;;;;12643607;28;20027;-75
2023/12/30 07:17:09;;;;;;;43.30;39.00;;;10.10;86.40;;;;;;12644868;28;20146;-75
2023/12/30 07:23:11;;;;;;;43.85;39.45;;;10.20;86.50;;;;;;12661207;28;20318;-75
2023/12/30 07:29:13;;;;;;;57.85;53.03;;;10.10;86.30;;;;;;12660964;28;20028;-75
2023/12/30 07:35:14;;;;;;;48.67;43.38;;;10.10;86.20;;;;;;12660499;28;20036;-75
2023/12/30 07:41:17;;;;;;;53.75;47.33;;;10.10;86.20;;;;;;12659471;28;20028;-75
2023/12/30 07:47:20;;;;;;;53.70;47.58;;;10.20;86.50;;;;;;12660071;28;20024;-75
2023/12/30 07:53:31;;;;;;;46.83;42.22;;;10.20;86.50;;;;;;12658982;28;20028;-75
2023/12/30 07:59:33;;;;;;;53.17;47.92;;;10.20;86.30;;;;;;12641361;28;20039;-75
2023/12/30 08:05:34;;;;;;;49.63;42.58;;;10.20;86.40;;;;;;12659033;28;20039;-75
2023/12/30 08:11:43;;;;;;;48.65;41.35;;;10.10;86.30;;;;;;12658625;28;20029;-75
2023/12/30 08:17:45;;;;;;;45.03;39.83;;;10.20;86.50;;;;;;12640418;28;20028;-75
2023/12/30 08:23:47;;;;;;;52.38;47.25;;;10.10;86.40;;;;;;12639537;28;20340;-75
2023/12/30 08:30:16;;;;;;;53.47;47.83;;;10.20;86.20;;;;;;12657912;28;20032;-75
2023/12/30 08:36:18;;;;;;;48.28;43.65;;;10.20;86.30;;;;;;12639728;28;20344;-75
2023/12/30 08:42:21;;;;;;;53.65;48.75;;;10.30;86.20;;;;;;12657251;28;20357;-75
2023/12/30 08:48:38;;;;;;;53.83;48.55;;;10.20;86.20;;;;;;12656986;28;20349;-75
2023/12/30 08:55:10;;;;;;;56.47;50.78;;;10.40;86.30;;;;;;12637166;28;20040;-75
2023/12/30 09:01:22;;;;;;;63.30;57.20;;;10.50;86.10;;;;;;12656371;28;20051;-75
2023/12/30 09:07:25;;;;;;;59.25;54.30;;;10.40;86.10;;;;;;12638499;28;20035;-75
2023/12/30 09:13:28;;;;;;;61.53;56.60;;;10.40;86.40;;;;;;12638057;28;20032;-75
2023/12/30 09:19:31;;;;;;;64.82;59.90;;;10.50;86.40;;;;;;12640281;28;20035;-75
2023/12/30 09:25:34;;;;;;;93.97;87.80;;;10.70;86.40;;;;;;12654767;28;20039;-75
2023/12/30 09:31:36;;;;;;;116.95;110.30;;;10.70;86.50;;;;;;12655192;28;20039;-75
2023/12/30 09:37:40;;;;;;;42.30;38.00;;;10.70;86.40;;;;;;12637648;28;20024;-75
2023/12/30 09:43:43;;;;;;;129.43;122.32;;;10.60;86.60;;;;;;12654632;28;20360;-75
2023/12/30 09:49:46;;;;;;;124.53;117.70;;;10.80;86.70;;;;;;12653260;28;20032;-75
2023/12/30 09:55:58;;;;;;;156.50;148.45;;;10.80;86.60;;;;;;12636129;28;20032;-75
2023/12/30 10:02:00;;;;;;;176.95;168.32;;;10.80;86.70;;;;;;12653538;28;20032;-75
2023/12/30 10:08:03;;;;;;;117.13;109.68;;;10.90;86.70;;;;;;12653877;28;20433;-75
2023/12/30 10:14:05;;;;;;;142.45;135.45;;;10.90;86.80;;;;;;12635731;28;20353;-75
2023/12/30 10:20:08;;;;;;;170.32;161.70;;;10.80;86.70;;;;;;12635646;28;20036;-75
2023/12/30 10:26:10;;;;;;;146.00;138.98;;;10.80;86.90;;;;;;12653264;28;20031;-75
2023/12/30 10:32:20;;;;;;;167.95;159.55;;;10.80;86.80;;;;;;12653381;28;20047;-75
2023/12/30 10:38:23;;;;;;;109.35;103.50;;;10.80;86.70;;;;;;12635347;28;20043;-75
2023/12/30 10:44:25;;;;;;;167.10;158.70;;;10.90;86.80;;;;;;12652925;28;20036;-75
2023/12/30 10:50:27;;;;;;;139.63;132.25;;;11.00;86.60;;;;;;12652906;28;20039;-75
2023/12/30 10:56:32;;;;;;;152.18;145.32;;;11.10;86.60;;;;;;12652591;28;20039;-75
2023/12/30 11:02:36;;;;;;;164.82;156.30;;;11.10;86.50;;;;;;12652520;28;20032;-75
2023/12/30 11:08:41;;;;;;;129.32;122.07;;;11.10;86.40;;;;;;12634704;28;20455;-75
2023/12/30 11:14:43;;;;;;;156.88;148.57;;;11.10;86.60;;;;;;12636726;28;20039;-75
2023/12/30 11:20:46;;;;;;;183.40;172.82;;;11.20;86.70;;;;;;12661291;28;20039;-75
2023/12/30 11:26:53;;;;;;;193.25;183.38;;;11.10;86.40;;;;;;12660891;28;20028;-75
2023/12/30 11:32:55;;;;;;;155.15;146.57;;;11.20;86.80;;;;;;12660702;28;20024;-75
2023/12/30 11:39:10;;;;;;;135.20;127.60;;;11.20;86.60;;;;;;12660454;28;20035;-75
2023/12/30 11:45:12;;;;;;;157.57;148.63;;;11.30;86.70;;;;;;12642179;28;20368;-75
2023/12/30 11:51:25;;;;;;;139.38;130.75;;;11.50;86.60;;;;;;12642039;28;20397;-75
2023/12/30 11:57:27;;;;;;;83.50;77.40;;;11.60;86.70;;;;;;12659369;28;20360;-75
2023/12/30 12:03:28;;;;;;;70.18;64.22;;;11.70;86.50;;;;;;12659095;28;20039;-75
2023/12/30 12:09:30;;;;;;;76.80;70.30;;;11.80;86.30;;;;;;12640980;28;20031;-73
2023/12/30 12:15:33;;;;;;;66.47;59.53;;;11.90;86.30;;;;;;12640841;28;20040;-72
2023/12/30 12:21:36;;;;;;;58.30;46.38;;;11.90;86.10;;;;;;12640531;28;20046;-73
2023/12/30 12:27:37;;;;;;;59.30;52.97;;;12.00;86.20;;;;;;12657931;28;20030;-73
2023/12/30 12:33:39;;;;;;;60.60;54.40;;;12.10;86.00;;;;;;12639804;28;20028;-73
2023/12/30 12:39:43;;;;;;;52.42;44.30;;;12.00;85.80;;;;;;12657507;28;20036;-73
2023/12/30 12:45:44;;;;;;;49.33;39.15;;;12.10;85.90;;;;;;12657087;28;20031;-73
2023/12/30 12:51:49;;;;;;;58.70;48.67;;;12.20;85.80;;;;;;12656809;28;20035;-72
2023/12/30 12:57:54;;;;;;;51.97;42.45;;;12.20;85.90;;;;;;12656516;28;20043;-73
2023/12/30 13:03:58;;;;;;;50.90;43.00;;;12.20;85.90;;;;;;12656079;28;20032;-73
2023/12/30 13:10:10;;;;;;;48.70;42.17;;;12.20;85.90;;;;;;12605503;28;20029;-73
2023/12/30 13:16:12;;;;;;;56.65;49.40;;;12.30;85.80;;;;;;12605365;28;20035;-73
2023/12/30 13:22:13;;;;;;;42.58;38.05;;;12.30;85.80;;;;;;12604880;28;20039;-73
2023/12/30 13:28:19;;;;;;;46.72;35.60;;;12.40;85.70;;;;;;12604707;28;20032;-73
2023/12/30 13:34:21;;;;;;;51.90;41.70;;;12.50;85.50;;;;;;12604652;28;20044;-72
2023/12/30 13:40:24;;;;;;;41.25;35.80;;;12.40;85.70;;;;;;12603894;28;20369;-73
2023/12/30 13:46:42;;;;;;;52.42;44.20;;;12.50;85.80;;;;;;12604246;28;20337;-73
2023/12/30 13:52:46;;;;;;;49.47;38.97;;;12.60;85.80;;;;;;12604195;28;20021;-73
2023/12/30 13:58:50;;;;;;;46.97;40.67;;;12.70;85.40;;;;;;12603908;28;20040;-73
2023/12/30 14:04:57;;;;;;;45.80;37.60;;;12.70;85.20;;;;;;12585770;28;20025;-73
2023/12/30 14:11:07;;;;;;;54.08;44.22;;;12.70;85.10;;;;;;12569246;28;20377;-75
2023/12/30 14:17:24;;;;;;;43.90;34.08;;;12.60;85.30;;;;;;12585613;28;20031;-75
2023/12/30 14:23:27;;;;;;;44.78;37.38;;;12.70;85.20;;;;;;12586007;28;20041;-75
2023/12/30 14:29:29;;;;;;;45.95;38.28;;;12.80;85.10;;;;;;12585410;28;20460;-75
2023/12/30 14:35:30;;;;;;;48.92;36.88;;;13.00;85.00;;;;;;12603110;28;20032;-75
2023/12/30 14:41:42;;;;;;;42.85;36.75;;;13.20;84.80;;;;;;12585550;28;20465;-75
2023/12/30 14:47:45;;;;;;;42.80;37.80;;;13.00;84.90;;;;;;12604010;28;20341;-75
2023/12/30 14:53:47;;;;;;;38.83;33.40;;;12.80;85.30;;;;;;12612021;28;20445;-75
2023/12/30 14:59:49;;;;;;;41.33;35.25;;;12.60;85.60;;;;;;12656324;22;20044;-75
2023/12/30 15:05:51;;;;;;;40.38;34.35;;;12.40;85.70;;;;;;12644050;28;20441;-75
2023/12/30 15:11:53;;;;;;;43.13;38.78;;;12.20;85.90;;;;;;12661844;28;20039;-75
2023/12/30 15:17:55;;;;;;;51.45;46.35;;;12.00;86.10;;;;;;12661468;28;20039;-75
2023/12/30 15:23:59;;;;;;;96.97;90.10;;;11.90;86.20;;;;;;12660900;28;20032;-75
2023/12/30 15:30:01;;;;;;;88.13;82.00;;;11.80;86.30;;;;;;12661588;28;20023;-75
2023/12/30 15:36:04;;;;;;;86.57;80.22;;;11.70;86.30;;;;;;12660566;28;20349;-75
2023/12/30 15:42:07;;;;;;;88.55;82.60;;;11.50;86.40;;;;;;12660338;28;20032;-73
2023/12/30 15:48:09;;;;;;;125.30;117.80;;;11.40;86.50;;;;;;12660081;28;20024;-73
2023/12/30 15:54:11;;;;;;;113.22;105.88;;;11.20;86.60;;;;;;12659789;28;20031;-73
2023/12/30 16:00:14;;;;;;;169.98;160.00;;;11.20;86.60;;;;;;12658851;28;20036;-72
2023/12/30 16:06:16;;;;;;;151.50;142.10;;;11.20;86.50;;;;;;12659270;28;20352;-73
2023/12/30 16:12:18;;;;;;;151.57;141.73;;;11.10;86.50;;;;;;12658923;28;20031;-73
2023/12/30 16:18:20;;;;;;;132.18;122.93;;;11.00;86.40;;;;;;12657465;28;20043;-72
2023/12/30 16:24:22;;;;;;;142.38;132.60;;;11.00;86.40;;;;;;12658224;28;20046;-72
2023/12/30 16:30:27;;;;;;;103.43;95.55;;;10.90;86.40;;;;;;12658152;28;20361;-73
2023/12/30 16:36:31;;;;;;;69.90;63.80;;;10.80;86.40;;;;;;12657739;28;20031;-72
2023/12/30 16:43:09;;;;;;;81.93;74.55;;;10.70;86.40;;;;;;12657420;28;20039;-72
2023/12/30 16:49:10;;;;;;;79.47;72.28;;;10.70;86.30;;;;;;12657186;28;20028;-75
2023/12/30 16:55:12;;;;;;;73.78;66.75;;;10.60;86.20;;;;;;12656820;28;20031;-75
2023/12/30 17:01:14;;;;;;;72.20;66.05;;;10.60;86.20;;;;;;12655589;28;20044;-75
2023/12/30 17:07:17;;;;;;;59.60;51.13;;;10.60;86.10;;;;;;12656264;28;20344;-72
2023/12/30 17:13:19;;;;;;;76.55;69.45;;;10.50;86.10;;;;;;12654037;28;20028;-73
2023/12/30 17:19:21;;;;;;;54.05;48.17;;;10.50;86.10;;;;;;12654593;28;20046;-72
2023/12/30 17:25:23;;;;;;;79.50;72.50;;;10.50;86.10;;;;;;12653850;28;20047;-72
2023/12/30 17:31:24;;;;;;;78.07;70.55;;;10.60;86.10;;;;;;12654597;28;20035;-72
2023/12/30 17:37:26;;;;;;;66.90;60.08;;;10.50;86.30;;;;;;12655652;28;20024;-72
2023/12/30 17:43:29;;;;;;;65.57;59.60;;;10.50;86.10;;;;;;12655297;28;20032;-73
2023/12/30 17:49:31;;;;;;;64.78;57.17;;;10.50;86.20;;;;;;12653671;28;20024;-73
2023/12/30 17:55:32;;;;;;;62.10;55.30;;;10.50;86.20;;;;;;12652832;28;20038;-72
2023/12/30 18:01:34;;;;;;;65.95;59.97;;;10.40;86.30;;;;;;12647539;28;20040;-73
2023/12/30 18:07:36;;;;;;;58.40;52.30;;;10.30;86.20;;;;;;12647119;28;20028;-73
2023/12/30 18:13:38;;;;;;;63.28;56.50;;;10.20;86.30;;;;;;12648672;28;20312;-75
2023/12/30 18:19:41;;;;;;;48.10;43.00;;;10.20;86.30;;;;;;12647810;28;20047;-75
2023/12/30 18:25:43;;;;;;;51.42;45.83;;;10.20;86.30;;;;;;12653936;28;20036;-75
2023/12/30 18:31:44;;;;;;;57.05;48.90;;;10.10;86.50;;;;;;12658282;28;20035;-75
2023/12/30 18:37:46;;;;;;;71.82;64.57;;;10.00;86.40;;;;;;12657559;28;20348;-75
2023/12/30 18:43:49;;;;;;;65.00;57.83;;;10.10;86.30;;;;;;12657317;28;20032;-75
2023/12/30 18:49:50;;;;;;;56.15;50.00;;;10.00;86.30;;;;;;12655544;28;20043;-75
2023/12/30 18:55:52;;;;;;;56.58;49.60;;;10.00;86.40;;;;;;12657469;28;20032;-75
2023/12/30 19:01:54;;;;;;;68.88;59.08;;;10.10;86.30;;;;;;12656351;28;20028;-75
2023/12/30 19:07:55;;;;;;;65.80;53.72;;;10.10;86.20;;;;;;12656263;28;20032;-75
2023/12/30 19:13:57;;;;;;;72.88;66.00;;;10.10;86.20;;;;;;12658551;28;20028;-75
2023/12/30 19:20:08;;;;;;;73.45;59.92;;;10.10;86.20;;;;;;12661449;28;20424;-75
2023/12/30 19:26:10;;;;;;;84.22;75.40;;;10.10;86.20;;;;;;12660352;28;20036;-75
2023/12/30 19:32:11;;;;;;;85.97;76.30;;;10.20;86.30;;;;;;12660321;28;20036;-75
2023/12/30 19:38:13;;;;;;;74.95;66.57;;;10.20;86.30;;;;;;12660183;28;20024;-75
2023/12/30 19:44:16;;;;;;;81.60;71.80;;;10.20;86.40;;;;;;12660054;28;20032;-75
2023/12/30 19:50:17;;;;;;;86.85;71.03;;;10.20;86.40;;;;;;12659115;28;20348;-75
2023/12/30 19:56:22;;;;;;;86.13;77.07;;;10.10;86.70;;;;;;12604919;28;20071;-72
2023/12/30 20:02:24;;;;;;;90.25;80.45;;;10.00;86.60;;;;;;12587500;28;20350;-72
2023/12/30 20:08:26;;;;;;;80.78;72.10;;;10.10;86.60;;;;;;12603875;28;20043;-71
2023/12/30 20:14:28;;;;;;;69.13;61.78;;;10.10;86.60;;;;;;12602864;28;20066;-72
2023/12/30 20:20:36;;;;;;;78.50;70.53;;;10.10;86.50;;;;;;12603380;28;20047;-72
2023/12/30 20:26:37;;;;;;;79.63;71.45;;;10.10;86.50;;;;;;12641377;28;20051;-72
2023/12/30 20:32:39;;;;;;;66.38;59.20;;;10.00;86.50;;;;;;12659190;28;20082;-72
2023/12/30 20:38:41;;;;;;;85.72;73.28;;;9.90;86.40;;;;;;12658120;28;20452;-72
2023/12/30 20:44:42;;;;;;;74.82;62.00;;;9.90;86.60;;;;;;12657037;28;20032;-73
2023/12/30 20:51:07;;;;;;;71.90;64.18;;;9.90;86.60;;;;;;12657562;28;20028;-75
2023/12/30 20:57:09;;;;;;;64.43;55.28;;;9.90;86.60;;;;;;12656478;28;20035;-75
2023/12/30 21:03:33;;;;;;;74.70;59.10;;;9.90;86.70;;;;;;12656950;28;20032;-75
2023/12/30 21:09:39;;;;;;;72.35;64.38;;;9.90;86.80;;;;;;12656734;28;20016;-75
2023/12/30 21:15:40;;;;;;;68.10;59.80;;;9.80;86.90;;;;;;12655784;28;20039;-75
2023/12/30 21:21:42;;;;;;;77.88;69.80;;;9.80;87.00;;;;;;12656229;28;20035;-75
2023/12/30 21:27:43;;;;;;;77.65;65.30;;;9.90;86.80;;;;;;12656018;28;20032;-75
2023/12/30 21:33:45;;;;;;;71.82;63.42;;;9.80;86.70;;;;;;12655792;28;20028;-75
2023/12/30 21:39:47;;;;;;;95.65;85.57;;;9.70;86.90;;;;;;12654437;28;20327;-74
2023/12/30 21:45:49;;;;;;;75.05;61.92;;;9.70;86.90;;;;;;12636572;28;20461;-74
2023/12/30 21:51:50;;;;;;;82.43;63.72;;;9.70;87.00;;;;;;12653446;28;20032;-75
2023/12/30 21:57:52;;;;;;;70.30;58.22;;;9.70;86.90;;;;;;12653808;28;20046;-75
2023/12/30 22:03:53;;;;;;;80.78;65.38;;;9.70;86.90;;;;;;12636129;28;20040;-75
2023/12/30 22:09:55;;;;;;;68.07;60.38;;;9.70;86.90;;;;;;12653425;28;20047;-74
2023/12/30 22:15:57;;;;;;;64.30;57.15;;;9.70;86.80;;;;;;12654037;28;20035;-75
2023/12/30 22:21:58;;;;;;;82.30;58.30;;;9.70;86.80;;;;;;12653707;28;20046;-75
2023/12/30 22:28:00;;;;;;;70.28;60.83;;;9.70;86.90;;;;;;12653505;28;20440;-75
2023/12/30 22:34:07;;;;;;;63.95;57.33;;;9.80;87.00;;;;;;12653429;28;20055;-75
2023/12/30 22:40:09;;;;;;;85.88;70.35;;;9.80;86.90;;;;;;12653314;28;20344;-74
2023/12/30 22:46:11;;;;;;;84.38;67.13;;;9.70;87.00;;;;;;12653097;28;20028;-74
2023/12/30 22:52:12;;;;;;;72.72;64.43;;;9.70;86.90;;;;;;12635140;28;20456;-75
2023/12/30 22:58:26;;;;;;;72.53;60.65;;;9.70;86.90;;;;;;12658948;22;20475;-74
2023/12/30 23:04:30;;;;;;;87.90;66.35;;;9.70;86.90;;;;;;12652626;28;20507;-74
2023/12/30 23:10:35;;;;;;;85.32;69.93;;;9.70;87.00;;;;;;12636965;28;20032;-74
2023/12/30 23:16:38;;;;;;;70.88;63.17;;;9.60;87.20;;;;;;12627599;28;20055;-74
2023/12/30 23:22:49;;;;;;;82.93;63.75;;;9.60;87.10;;;;;;12643480;28;20051;-74
2023/12/30 23:28:51;;;;;;;65.32;48.53;;;9.70;87.10;;;;;;12661065;28;20047;-72
2023/12/30 23:34:52;;;;;;;70.68;60.42;;;9.60;87.00;;;;;;12642904;28;20432;-72
2023/12/30 23:40:54;;;;;;;68.93;61.17;;;9.60;87.00;;;;;;12660677;28;20036;-72
2023/12/30 23:46:56;;;;;;;79.25;70.85;;;9.50;86.80;;;;;;12642250;28;20032;-71
2023/12/30 23:52:58;;;;;;;86.97;68.53;;;9.20;86.30;;;;;;12660051;28;20119;-72
2023/12/30 23:59:00;;;;;;;78.35;61.03;;;9.20;86.80;;;;;;12660468;28;20028;-72
